sensor_id;sensor_type;location;lat;lon;timestamp;P1;durP1;ratioP1;P2;durP2;ratioP2
14470;SDS011;7321;50.802;4.336;2023-06-22T00:02:28;3.17;;;2.88;;
14470;SDS011;7321;50.802;4.336;2023-06-22T00:04:57;3.38;;;3.08;;
14470;SDS011;7321;50.802;4.336;2023-06-22T00:07:29;2.90;;;2.70;;
14470;SDS011;7321;50.802;4.336;2023-06-22T00:09:58;3.17;;;2.70;;
14470;SDS011;7321;50.802;4.336;2023-06-22T00:12:29;4.13;;;2.80;;
14470;SDS011;7321;50.802;4.336;2023-06-22T00:15:07;3.30;;;2.58;;
14470;SDS011;7321;50.802;4.336;2023-06-22T00:17:41;3.13;;;2.55;;
14470;SDS011;7321;50.802;4.336;2023-06-22T00:20:16;2.60;;;2.40;;
14470;SDS011;7321;50.802;4.336;2023-06-22T00:22:45;2.63;;;2.03;;
14470;SDS011;7321;50.802;4.336;2023-06-22T00:25:14;2.95;;;2.35;;
14470;SDS011;7321;50.802;4.336;2023-06-22T00:27:46;4.03;;;2.33;;
14470;SDS011;7321;50.802;4.336;2023-06-22T00:30:12;2.47;;;2.28;;
14470;SDS011;7321;50.802;4.336;2023-06-22T00:32:38;3.55;;;2.60;;
14470;SDS011;7321;50.802;4.336;2023-06-22T00:35:04;4.60;;;2.47;;
14470;SDS011;7321;50.802;4.336;2023-06-22T00:37:30;2.97;;;2.40;;
14470;SDS011;7321;50.802;4.336;2023-06-22T00:40:05;2.40;;;2.20;;
14470;SDS011;7321;50.802;4.336;2023-06-22T00:42:47;3.25;;;2.63;;
14470;SDS011;7321;50.802;4.336;2023-06-22T00:45:15;3.45;;;2.28;;
14470;SDS011;7321;50.802;4.336;2023-06-22T00:47:50;3.05;;;2.65;;
14470;SDS011;7321;50.802;4.336;2023-06-22T00:50:24;3.13;;;2.83;;
14470;SDS011;7321;50.802;4.336;2023-06-22T00:52:58;2.83;;;2.63;;
14470;SDS011;7321;50.802;4.336;2023-06-22T00:55:33;7.57;;;3.20;;
14470;SDS011;7321;50.802;4.336;2023-06-22T00:58:03;3.95;;;3.30;;
14470;SDS011;7321;50.802;4.336;2023-06-22T01:00:38;3.67;;;3.35;;
14470;SDS011;7321;50.802;4.336;2023-06-22T01:03:11;4.00;;;3.55;;
14470;SDS011;7321;50.802;4.336;2023-06-22T01:05:42;3.13;;;2.83;;
14470;SDS011;7321;50.802;4.336;2023-06-22T01:13:57;3.88;;;3.38;;
14470;SDS011;7321;50.802;4.336;2023-06-22T01:16:30;4.25;;;3.42;;
14470;SDS011;7321;50.802;4.336;2023-06-22T01:18:59;3.60;;;3.30;;
14470;SDS011;7321;50.802;4.336;2023-06-22T01:21:30;5.85;;;3.95;;
14470;SDS011;7321;50.802;4.336;2023-06-22T01:29:07;6.18;;;4.00;;
14470;SDS011;7321;50.802;4.336;2023-06-22T01:31:37;4.63;;;4.20;;
14470;SDS011;7321;50.802;4.336;2023-06-22T01:34:06;4.60;;;4.03;;
14470;SDS011;7321;50.802;4.336;2023-06-22T01:36:33;5.72;;;3.70;;
14470;SDS011;7321;50.802;4.336;2023-06-22T01:39:00;5.10;;;4.20;;
14470;SDS011;7321;50.802;4.336;2023-06-22T01:41:29;4.50;;;4.00;;
14470;SDS011;7321;50.802;4.336;2023-06-22T01:44:07;4.70;;;4.15;;
14470;SDS011;7321;50.802;4.336;2023-06-22T01:46:37;5.00;;;4.50;;
14470;SDS011;7321;50.802;4.336;2023-06-22T01:49:05;6.13;;;4.45;;
14470;SDS011;7321;50.802;4.336;2023-06-22T01:51:31;4.93;;;4.32;;
14470;SDS011;7321;50.802;4.336;2023-06-22T01:54:01;4.85;;;4.00;;
14470;SDS011;7321;50.802;4.336;2023-06-22T01:56:30;4.97;;;4.25;;
14470;SDS011;7321;50.802;4.336;2023-06-22T01:59:00;6.20;;;4.43;;
14470;SDS011;7321;50.802;4.336;2023-06-22T02:01:44;4.93;;;4.43;;
14470;SDS011;7321;50.802;4.336;2023-06-22T02:04:26;5.32;;;4.80;;
14470;SDS011;7321;50.802;4.336;2023-06-22T02:06:57;4.80;;;4.38;;
14470;SDS011;7321;50.802;4.336;2023-06-22T02:09:32;6.15;;;4.20;;
14470;SDS011;7321;50.802;4.336;2023-06-22T02:12:06;5.60;;;4.35;;
14470;SDS011;7321;50.802;4.336;2023-06-22T02:14:39;5.40;;;4.90;;
14470;SDS011;7321;50.802;4.336;2023-06-22T02:17:09;5.25;;;4.72;;
14470;SDS011;7321;50.802;4.336;2023-06-22T02:19:41;6.43;;;5.35;;
14470;SDS011;7321;50.802;4.336;2023-06-22T02:22:10;5.53;;;5.03;;
14470;SDS011;7321;50.802;4.336;2023-06-22T02:24:40;6.60;;;4.97;;
14470;SDS011;7321;50.802;4.336;2023-06-22T02:27:06;5.72;;;4.72;;
14470;SDS011;7321;50.802;4.336;2023-06-22T02:29:33;7.22;;;4.75;;
14470;SDS011;7321;50.802;4.336;2023-06-22T02:32:02;5.40;;;4.90;;
14470;SDS011;7321;50.802;4.336;2023-06-22T02:34:29;5.45;;;4.78;;
14470;SDS011;7321;50.802;4.336;2023-06-22T02:36:55;6.30;;;4.90;;
14470;SDS011;7321;50.802;4.336;2023-06-22T02:39:24;5.63;;;4.63;;
14470;SDS011;7321;50.802;4.336;2023-06-22T02:41:50;5.20;;;4.70;;
14470;SDS011;7321;50.802;4.336;2023-06-22T02:44:22;5.00;;;4.30;;
14470;SDS011;7321;50.802;4.336;2023-06-22T02:46:51;6.97;;;4.15;;
14470;SDS011;7321;50.802;4.336;2023-06-22T02:49:20;5.18;;;4.68;;
14470;SDS011;7321;50.802;4.336;2023-06-22T02:51:49;5.50;;;5.00;;
14470;SDS011;7321;50.802;4.336;2023-06-22T02:54:22;5.72;;;5.10;;
14470;SDS011;7321;50.802;4.336;2023-06-22T02:56:48;6.25;;;5.07;;
14470;SDS011;7321;50.802;4.336;2023-06-22T02:59:15;5.82;;;4.88;;
14470;SDS011;7321;50.802;4.336;2023-06-22T03:01:58;6.78;;;4.75;;
14470;SDS011;7321;50.802;4.336;2023-06-22T03:04:29;5.70;;;4.85;;
14470;SDS011;7321;50.802;4.336;2023-06-22T03:07:01;7.68;;;5.20;;
14470;SDS011;7321;50.802;4.336;2023-06-22T03:09:30;5.88;;;5.00;;
14470;SDS011;7321;50.802;4.336;2023-06-22T03:11:58;5.82;;;5.15;;
14470;SDS011;7321;50.802;4.336;2023-06-22T03:14:34;6.70;;;4.90;;
14470;SDS011;7321;50.802;4.336;2023-06-22T03:17:04;7.85;;;5.20;;
14470;SDS011;7321;50.802;4.336;2023-06-22T03:19:30;5.40;;;4.90;;
14470;SDS011;7321;50.802;4.336;2023-06-22T03:22:00;6.18;;;5.28;;
14470;SDS011;7321;50.802;4.336;2023-06-22T03:24:31;6.95;;;5.65;;
14470;SDS011;7321;50.802;4.336;2023-06-22T03:27:00;7.07;;;5.45;;
14470;SDS011;7321;50.802;4.336;2023-06-22T03:29:48;7.40;;;4.95;;
14470;SDS011;7321;50.802;4.336;2023-06-22T03:32:17;7.03;;;5.15;;
14470;SDS011;7321;50.802;4.336;2023-06-22T03:34:46;6.32;;;5.43;;
14470;SDS011;7321;50.802;4.336;2023-06-22T03:37:17;7.03;;;5.45;;
14470;SDS011;7321;50.802;4.336;2023-06-22T03:39:43;7.82;;;5.72;;
14470;SDS011;7321;50.802;4.336;2023-06-22T03:42:12;7.45;;;5.32;;
14470;SDS011;7321;50.802;4.336;2023-06-22T03:44:41;6.60;;;4.90;;
14470;SDS011;7321;50.802;4.336;2023-06-22T03:47:12;6.05;;;5.30;;
14470;SDS011;7321;50.802;4.336;2023-06-22T03:49:43;7.32;;;4.82;;
14470;SDS011;7321;50.802;4.336;2023-06-22T03:52:15;6.57;;;5.30;;
14470;SDS011;7321;50.802;4.336;2023-06-22T03:57:42;9.05;;;5.40;;
14470;SDS011;7321;50.802;4.336;2023-06-22T04:00:29;7.03;;;5.90;;
14470;SDS011;7321;50.802;4.336;2023-06-22T04:03:00;7.57;;;6.28;;
14470;SDS011;7321;50.802;4.336;2023-06-22T04:05:33;6.68;;;5.97;;
14470;SDS011;7321;50.802;4.336;2023-06-22T04:08:04;6.47;;;5.53;;
14470;SDS011;7321;50.802;4.336;2023-06-22T04:10:44;6.72;;;5.47;;
14470;SDS011;7321;50.802;4.336;2023-06-22T04:13:21;6.40;;;5.25;;
14470;SDS011;7321;50.802;4.336;2023-06-22T04:16:13;6.57;;;5.07;;
14470;SDS011;7321;50.802;4.336;2023-06-22T04:21:31;10.07;;;5.10;;
14470;SDS011;7321;50.802;4.336;2023-06-22T04:24:03;8.18;;;5.18;;
14470;SDS011;7321;50.802;4.336;2023-06-22T04:26:34;6.15;;;5.03;;
14470;SDS011;7321;50.802;4.336;2023-06-22T04:29:06;7.20;;;5.65;;
14470;SDS011;7321;50.802;4.336;2023-06-22T04:31:39;7.18;;;6.10;;
14470;SDS011;7321;50.802;4.336;2023-06-22T04:34:24;7.78;;;5.93;;
14470;SDS011;7321;50.802;4.336;2023-06-22T04:37:15;8.35;;;5.60;;
14470;SDS011;7321;50.802;4.336;2023-06-22T04:39:49;6.30;;;5.65;;
14470;SDS011;7321;50.802;4.336;2023-06-22T04:42:40;7.90;;;5.95;;
14470;SDS011;7321;50.802;4.336;2023-06-22T04:45:20;7.80;;;5.60;;
14470;SDS011;7321;50.802;4.336;2023-06-22T04:47:55;7.65;;;6.40;;
14470;SDS011;7321;50.802;4.336;2023-06-22T04:50:20;10.25;;;7.10;;
14470;SDS011;7321;50.802;4.336;2023-06-22T04:52:51;9.00;;;7.57;;
14470;SDS011;7321;50.802;4.336;2023-06-22T04:55:18;8.38;;;7.15;;
14470;SDS011;7321;50.802;4.336;2023-06-22T04:57:45;8.98;;;8.07;;
14470;SDS011;7321;50.802;4.336;2023-06-22T05:00:15;10.07;;;7.88;;
14470;SDS011;7321;50.802;4.336;2023-06-22T05:02:43;8.27;;;7.53;;
14470;SDS011;7321;50.802;4.336;2023-06-22T05:05:10;8.55;;;7.75;;
14470;SDS011;7321;50.802;4.336;2023-06-22T05:07:39;10.70;;;7.97;;
14470;SDS011;7321;50.802;4.336;2023-06-22T05:10:08;11.85;;;8.80;;
14470;SDS011;7321;50.802;4.336;2023-06-22T05:12:38;10.70;;;8.52;;
14470;SDS011;7321;50.802;4.336;2023-06-22T05:15:05;10.88;;;8.40;;
14470;SDS011;7321;50.802;4.336;2023-06-22T05:17:32;12.80;;;8.63;;
14470;SDS011;7321;50.802;4.336;2023-06-22T05:20:02;10.80;;;9.68;;
14470;SDS011;7321;50.802;4.336;2023-06-22T05:22:31;13.82;;;10.65;;
14470;SDS011;7321;50.802;4.336;2023-06-22T05:24:58;12.65;;;10.35;;
14470;SDS011;7321;50.802;4.336;2023-06-22T05:27:24;12.13;;;10.20;;
14470;SDS011;7321;50.802;4.336;2023-06-22T05:29:50;13.60;;;12.20;;
14470;SDS011;7321;50.802;4.336;2023-06-22T05:32:16;13.13;;;11.80;;
14470;SDS011;7321;50.802;4.336;2023-06-22T05:34:42;16.48;;;13.20;;
14470;SDS011;7321;50.802;4.336;2023-06-22T05:37:07;13.68;;;12.35;;
14470;SDS011;7321;50.802;4.336;2023-06-22T05:39:34;13.05;;;11.93;;
14470;SDS011;7321;50.802;4.336;2023-06-22T05:42:04;14.48;;;12.98;;
14470;SDS011;7321;50.802;4.336;2023-06-22T05:44:36;15.32;;;13.68;;
14470;SDS011;7321;50.802;4.336;2023-06-22T05:47:04;16.90;;;15.13;;
14470;SDS011;7321;50.802;4.336;2023-06-22T05:49:41;17.80;;;15.93;;
14470;SDS011;7321;50.802;4.336;2023-06-22T05:52:18;18.67;;;16.27;;
14470;SDS011;7321;50.802;4.336;2023-06-22T05:54:46;16.77;;;15.15;;
14470;SDS011;7321;50.802;4.336;2023-06-22T05:57:25;14.65;;;13.25;;
14470;SDS011;7321;50.802;4.336;2023-06-22T05:59:53;15.70;;;12.90;;
14470;SDS011;7321;50.802;4.336;2023-06-22T06:02:22;16.63;;;13.90;;
14470;SDS011;7321;50.802;4.336;2023-06-22T06:05:13;13.88;;;12.48;;
14470;SDS011;7321;50.802;4.336;2023-06-22T06:08:04;14.68;;;12.52;;
14470;SDS011;7321;50.802;4.336;2023-06-22T06:10:33;14.77;;;12.07;;
14470;SDS011;7321;50.802;4.336;2023-06-22T06:13:09;14.23;;;12.80;;
14470;SDS011;7321;50.802;4.336;2023-06-22T06:15:37;17.60;;;15.80;;
14470;SDS011;7321;50.802;4.336;2023-06-22T06:18:03;17.77;;;15.95;;
14470;SDS011;7321;50.802;4.336;2023-06-22T06:20:31;19.15;;;16.60;;
14470;SDS011;7321;50.802;4.336;2023-06-22T06:22:59;20.48;;;18.30;;
14470;SDS011;7321;50.802;4.336;2023-06-22T06:25:25;21.40;;;19.05;;
14470;SDS011;7321;50.802;4.336;2023-06-22T06:27:51;20.05;;;17.95;;
14470;SDS011;7321;50.802;4.336;2023-06-22T06:30:19;22.20;;;19.80;;
14470;SDS011;7321;50.802;4.336;2023-06-22T06:32:54;21.63;;;19.30;;
14470;SDS011;7321;50.802;4.336;2023-06-22T06:35:20;21.70;;;19.27;;
14470;SDS011;7321;50.802;4.336;2023-06-22T06:37:48;21.45;;;19.25;;
14470;SDS011;7321;50.802;4.336;2023-06-22T06:40:16;22.20;;;19.60;;
14470;SDS011;7321;50.802;4.336;2023-06-22T06:42:46;21.90;;;19.58;;
14470;SDS011;7321;50.802;4.336;2023-06-22T06:45:18;24.25;;;19.65;;
14470;SDS011;7321;50.802;4.336;2023-06-22T06:47:45;21.77;;;18.80;;
14470;SDS011;7321;50.802;4.336;2023-06-22T06:50:11;26.38;;;20.20;;
14470;SDS011;7321;50.802;4.336;2023-06-22T06:52:43;22.67;;;19.65;;
14470;SDS011;7321;50.802;4.336;2023-06-22T06:55:11;24.50;;;19.95;;
14470;SDS011;7321;50.802;4.336;2023-06-22T06:57:42;23.60;;;18.90;;
14470;SDS011;7321;50.802;4.336;2023-06-22T07:00:09;23.58;;;19.65;;
14470;SDS011;7321;50.802;4.336;2023-06-22T07:02:39;24.58;;;19.52;;
14470;SDS011;7321;50.802;4.336;2023-06-22T07:05:14;23.98;;;19.23;;
14470;SDS011;7321;50.802;4.336;2023-06-22T07:07:46;23.30;;;20.33;;
14470;SDS011;7321;50.802;4.336;2023-06-22T07:10:18;21.38;;;18.98;;
14470;SDS011;7321;50.802;4.336;2023-06-22T07:12:47;26.80;;;19.00;;
14470;SDS011;7321;50.802;4.336;2023-06-22T07:15:15;21.48;;;18.88;;
14470;SDS011;7321;50.802;4.336;2023-06-22T07:17:47;20.73;;;18.52;;
14470;SDS011;7321;50.802;4.336;2023-06-22T07:20:21;20.92;;;18.77;;
14470;SDS011;7321;50.802;4.336;2023-06-22T07:23:10;26.02;;;20.67;;
14470;SDS011;7321;50.802;4.336;2023-06-22T07:25:38;23.40;;;20.00;;
14470;SDS011;7321;50.802;4.336;2023-06-22T07:28:05;23.55;;;19.13;;
14470;SDS011;7321;50.802;4.336;2023-06-22T07:30:32;22.60;;;19.73;;
14470;SDS011;7321;50.802;4.336;2023-06-22T07:32:59;20.77;;;18.48;;
14470;SDS011;7321;50.802;4.336;2023-06-22T07:35:29;24.08;;;19.65;;
14470;SDS011;7321;50.802;4.336;2023-06-22T07:37:56;21.55;;;18.65;;
14470;SDS011;7321;50.802;4.336;2023-06-22T07:40:22;21.77;;;18.38;;
14470;SDS011;7321;50.802;4.336;2023-06-22T07:42:50;20.23;;;18.05;;
14470;SDS011;7321;50.802;4.336;2023-06-22T07:45:23;24.27;;;18.02;;
14470;SDS011;7321;50.802;4.336;2023-06-22T07:47:49;19.55;;;17.13;;
14470;SDS011;7321;50.802;4.336;2023-06-22T07:50:18;18.95;;;16.95;;
14470;SDS011;7321;50.802;4.336;2023-06-22T07:52:49;18.67;;;16.77;;
14470;SDS011;7321;50.802;4.336;2023-06-22T07:55:21;18.50;;;16.70;;
14470;SDS011;7321;50.802;4.336;2023-06-22T07:57:49;18.30;;;16.35;;
14470;SDS011;7321;50.802;4.336;2023-06-22T08:00:17;18.67;;;16.77;;
14470;SDS011;7321;50.802;4.336;2023-06-22T08:02:46;18.48;;;15.55;;
14470;SDS011;7321;50.802;4.336;2023-06-22T08:05:15;18.20;;;16.33;;
14470;SDS011;7321;50.802;4.336;2023-06-22T08:07:44;18.33;;;16.52;;
14470;SDS011;7321;50.802;4.336;2023-06-22T08:10:17;18.90;;;16.20;;
14470;SDS011;7321;50.802;4.336;2023-06-22T08:12:48;17.90;;;15.77;;
14470;SDS011;7321;50.802;4.336;2023-06-22T08:15:26;17.33;;;15.48;;
14470;SDS011;7321;50.802;4.336;2023-06-22T08:18:16;19.92;;;15.00;;
14470;SDS011;7321;50.802;4.336;2023-06-22T08:20:42;15.80;;;14.13;;
14470;SDS011;7321;50.802;4.336;2023-06-22T08:23:08;17.85;;;15.05;;
14470;SDS011;7321;50.802;4.336;2023-06-22T08:25:34;18.00;;;15.00;;
14470;SDS011;7321;50.802;4.336;2023-06-22T08:28:00;20.27;;;15.02;;
14470;SDS011;7321;50.802;4.336;2023-06-22T08:30:27;17.40;;;15.60;;
14470;SDS011;7321;50.802;4.336;2023-06-22T08:32:55;17.65;;;15.80;;
14470;SDS011;7321;50.802;4.336;2023-06-22T08:35:22;19.73;;;15.73;;
14470;SDS011;7321;50.802;4.336;2023-06-22T08:37:48;20.02;;;16.10;;
14470;SDS011;7321;50.802;4.336;2023-06-22T08:40:22;17.85;;;16.08;;
14470;SDS011;7321;50.802;4.336;2023-06-22T08:42:48;20.60;;;16.20;;
14470;SDS011;7321;50.802;4.336;2023-06-22T08:45:14;18.33;;;16.13;;
14470;SDS011;7321;50.802;4.336;2023-06-22T08:47:41;18.88;;;16.90;;
14470;SDS011;7321;50.802;4.336;2023-06-22T08:50:08;19.23;;;17.33;;
14470;SDS011;7321;50.802;4.336;2023-06-22T08:52:38;18.17;;;16.38;;
14470;SDS011;7321;50.802;4.336;2023-06-22T08:55:06;18.40;;;15.88;;
14470;SDS011;7321;50.802;4.336;2023-06-22T08:57:34;20.77;;;17.70;;
14470;SDS011;7321;50.802;4.336;2023-06-22T09:00:02;20.10;;;17.35;;
14470;SDS011;7321;50.802;4.336;2023-06-22T09:02:30;16.95;;;15.25;;
14470;SDS011;7321;50.802;4.336;2023-06-22T09:04:57;17.67;;;15.85;;
14470;SDS011;7321;50.802;4.336;2023-06-22T09:07:28;18.67;;;16.10;;
14470;SDS011;7321;50.802;4.336;2023-06-22T09:10:00;20.17;;;16.35;;
14470;SDS011;7321;50.802;4.336;2023-06-22T09:12:32;20.00;;;15.95;;
14470;SDS011;7321;50.802;4.336;2023-06-22T09:14:59;16.90;;;15.20;;
14470;SDS011;7321;50.802;4.336;2023-06-22T09:17:28;17.73;;;15.32;;
14470;SDS011;7321;50.802;4.336;2023-06-22T09:20:01;16.42;;;14.45;;
14470;SDS011;7321;50.802;4.336;2023-06-22T09:22:40;18.20;;;15.88;;
14470;SDS011;7321;50.802;4.336;2023-06-22T09:25:08;16.88;;;14.57;;
14470;SDS011;7321;50.802;4.336;2023-06-22T09:27:46;14.75;;;13.35;;
14470;SDS011;7321;50.802;4.336;2023-06-22T09:30:18;16.50;;;14.82;;
14470;SDS011;7321;50.802;4.336;2023-06-22T09:32:47;17.88;;;14.95;;
14470;SDS011;7321;50.802;4.336;2023-06-22T09:35:13;16.92;;;14.85;;
14470;SDS011;7321;50.802;4.336;2023-06-22T09:37:39;16.15;;;14.50;;
14470;SDS011;7321;50.802;4.336;2023-06-22T09:40:06;16.13;;;13.93;;
14470;SDS011;7321;50.802;4.336;2023-06-22T09:42:35;17.05;;;15.45;;
14470;SDS011;7321;50.802;4.336;2023-06-22T09:45:01;19.00;;;16.00;;
14470;SDS011;7321;50.802;4.336;2023-06-22T09:47:27;16.52;;;15.07;;
14470;SDS011;7321;50.802;4.336;2023-06-22T09:49:54;17.05;;;15.18;;
14470;SDS011;7321;50.802;4.336;2023-06-22T09:52:21;16.25;;;14.60;;
14470;SDS011;7321;50.802;4.336;2023-06-22T09:54:47;16.25;;;14.57;;
14470;SDS011;7321;50.802;4.336;2023-06-22T09:57:13;22.65;;;17.55;;
14470;SDS011;7321;50.802;4.336;2023-06-22T09:59:39;22.17;;;18.90;;
14470;SDS011;7321;50.802;4.336;2023-06-22T10:02:07;21.30;;;19.05;;
14470;SDS011;7321;50.802;4.336;2023-06-22T10:04:34;19.95;;;17.88;;
14470;SDS011;7321;50.802;4.336;2023-06-22T10:07:01;22.52;;;19.45;;
14470;SDS011;7321;50.802;4.336;2023-06-22T10:09:28;21.63;;;19.35;;
14470;SDS011;7321;50.802;4.336;2023-06-22T10:11:53;21.27;;;19.10;;
14470;SDS011;7321;50.802;4.336;2023-06-22T10:14:19;24.20;;;21.63;;
14470;SDS011;7321;50.802;4.336;2023-06-22T10:16:45;25.15;;;22.60;;
14470;SDS011;7321;50.802;4.336;2023-06-22T10:19:11;29.00;;;24.20;;
14470;SDS011;7321;50.802;4.336;2023-06-22T10:21:37;27.13;;;24.30;;
14470;SDS011;7321;50.802;4.336;2023-06-22T10:24:03;31.92;;;27.67;;
14470;SDS011;7321;50.802;4.336;2023-06-22T10:26:34;31.05;;;27.15;;
14470;SDS011;7321;50.802;4.336;2023-06-22T10:29:01;29.48;;;26.65;;
14470;SDS011;7321;50.802;4.336;2023-06-22T10:31:28;27.17;;;24.45;;
14470;SDS011;7321;50.802;4.336;2023-06-22T10:34:01;26.88;;;24.17;;
14470;SDS011;7321;50.802;4.336;2023-06-22T10:36:27;26.75;;;23.77;;
14470;SDS011;7321;50.802;4.336;2023-06-22T10:38:56;23.02;;;20.70;;
14470;SDS011;7321;50.802;4.336;2023-06-22T10:41:36;24.45;;;21.92;;
14470;SDS011;7321;50.802;4.336;2023-06-22T10:44:02;27.20;;;24.40;;
14470;SDS011;7321;50.802;4.336;2023-06-22T10:46:28;26.42;;;23.80;;
14470;SDS011;7321;50.802;4.336;2023-06-22T10:48:54;28.48;;;24.42;;
14470;SDS011;7321;50.802;4.336;2023-06-22T10:51:22;26.80;;;24.08;;
14470;SDS011;7321;50.802;4.336;2023-06-22T10:53:48;25.25;;;22.65;;
14470;SDS011;7321;50.802;4.336;2023-06-22T10:56:14;28.13;;;25.25;;
14470;SDS011;7321;50.802;4.336;2023-06-22T10:58:40;29.08;;;26.15;;
14470;SDS011;7321;50.802;4.336;2023-06-22T11:01:06;29.52;;;26.42;;
14470;SDS011;7321;50.802;4.336;2023-06-22T11:03:31;29.95;;;26.85;;
14470;SDS011;7321;50.802;4.336;2023-06-22T11:05:57;29.73;;;26.67;;
14470;SDS011;7321;50.802;4.336;2023-06-22T11:08:23;30.92;;;27.65;;
14470;SDS011;7321;50.802;4.336;2023-06-22T11:10:50;32.22;;;28.92;;
14470;SDS011;7321;50.802;4.336;2023-06-22T11:13:17;33.00;;;29.45;;
14470;SDS011;7321;50.802;4.336;2023-06-22T11:15:43;34.63;;;30.80;;
14470;SDS011;7321;50.802;4.336;2023-06-22T11:18:08;34.03;;;30.55;;
14470;SDS011;7321;50.802;4.336;2023-06-22T11:20:34;33.17;;;29.77;;
14470;SDS011;7321;50.802;4.336;2023-06-22T11:23:04;33.80;;;30.10;;
14470;SDS011;7321;50.802;4.336;2023-06-22T11:25:33;33.72;;;30.33;;
14470;SDS011;7321;50.802;4.336;2023-06-22T11:28:03;34.65;;;31.13;;
14470;SDS011;7321;50.802;4.336;2023-06-22T11:30:30;34.60;;;30.80;;
14470;SDS011;7321;50.802;4.336;2023-06-22T11:32:56;34.13;;;30.88;;
14470;SDS011;7321;50.802;4.336;2023-06-22T11:35:23;36.05;;;32.40;;
14470;SDS011;7321;50.802;4.336;2023-06-22T11:37:49;35.30;;;31.50;;
14470;SDS011;7321;50.802;4.336;2023-06-22T11:40:15;34.58;;;31.20;;
14470;SDS011;7321;50.802;4.336;2023-06-22T11:42:42;35.22;;;30.98;;
14470;SDS011;7321;50.802;4.336;2023-06-22T11:45:11;31.98;;;28.65;;
14470;SDS011;7321;50.802;4.336;2023-06-22T11:47:37;30.38;;;27.30;;
14470;SDS011;7321;50.802;4.336;2023-06-22T11:50:04;29.67;;;26.77;;
14470;SDS011;7321;50.802;4.336;2023-06-22T11:52:31;29.95;;;26.77;;
14470;SDS011;7321;50.802;4.336;2023-06-22T11:54:58;30.48;;;27.10;;
14470;SDS011;7321;50.802;4.336;2023-06-22T11:57:24;30.38;;;27.48;;
14470;SDS011;7321;50.802;4.336;2023-06-22T11:59:50;32.05;;;28.83;;
14470;SDS011;7321;50.802;4.336;2023-06-22T12:02:19;29.35;;;26.55;;
14470;SDS011;7321;50.802;4.336;2023-06-22T12:04:44;30.85;;;27.33;;
14470;SDS011;7321;50.802;4.336;2023-06-22T12:07:14;30.77;;;27.58;;
14470;SDS011;7321;50.802;4.336;2023-06-22T12:09:45;30.90;;;27.77;;
14470;SDS011;7321;50.802;4.336;2023-06-22T12:12:11;30.88;;;27.88;;
14470;SDS011;7321;50.802;4.336;2023-06-22T12:14:37;31.85;;;28.27;;
14470;SDS011;7321;50.802;4.336;2023-06-22T12:17:03;31.73;;;28.35;;
14470;SDS011;7321;50.802;4.336;2023-06-22T12:19:29;31.50;;;28.30;;
14470;SDS011;7321;50.802;4.336;2023-06-22T12:21:55;31.25;;;28.10;;
14470;SDS011;7321;50.802;4.336;2023-06-22T12:24:21;33.50;;;29.90;;
14470;SDS011;7321;50.802;4.336;2023-06-22T12:26:47;32.30;;;28.85;;
14470;SDS011;7321;50.802;4.336;2023-06-22T12:29:13;32.65;;;29.48;;
14470;SDS011;7321;50.802;4.336;2023-06-22T12:31:39;34.85;;;31.00;;
14470;SDS011;7321;50.802;4.336;2023-06-22T12:34:04;33.83;;;30.30;;
14470;SDS011;7321;50.802;4.336;2023-06-22T12:36:30;34.40;;;30.77;;
14470;SDS011;7321;50.802;4.336;2023-06-22T12:38:56;33.42;;;29.92;;
14470;SDS011;7321;50.802;4.336;2023-06-22T12:41:22;37.00;;;31.45;;
14470;SDS011;7321;50.802;4.336;2023-06-22T12:43:47;35.67;;;32.03;;
14470;SDS011;7321;50.802;4.336;2023-06-22T12:46:13;37.53;;;33.80;;
14470;SDS011;7321;50.802;4.336;2023-06-22T12:48:39;38.28;;;34.25;;
14470;SDS011;7321;50.802;4.336;2023-06-22T12:51:08;38.95;;;34.78;;
14470;SDS011;7321;50.802;4.336;2023-06-22T12:53:35;38.42;;;34.30;;
14470;SDS011;7321;50.802;4.336;2023-06-22T12:56:01;40.55;;;36.20;;
14470;SDS011;7321;50.802;4.336;2023-06-22T12:58:27;39.60;;;35.42;;
14470;SDS011;7321;50.802;4.336;2023-06-22T13:00:52;41.63;;;37.13;;
14470;SDS011;7321;50.802;4.336;2023-06-22T13:03:18;45.13;;;38.28;;
14470;SDS011;7321;50.802;4.336;2023-06-22T13:05:44;43.65;;;38.90;;
14470;SDS011;7321;50.802;4.336;2023-06-22T13:08:10;43.25;;;38.78;;
14470;SDS011;7321;50.802;4.336;2023-06-22T13:13:44;44.78;;;39.95;;
14470;SDS011;7321;50.802;4.336;2023-06-22T13:16:19;45.72;;;40.75;;
14470;SDS011;7321;50.802;4.336;2023-06-22T13:18:45;48.03;;;42.70;;
14470;SDS011;7321;50.802;4.336;2023-06-22T13:21:11;47.17;;;42.00;;
14470;SDS011;7321;50.802;4.336;2023-06-22T13:26:07;52.60;;;43.97;;
14470;SDS011;7321;50.802;4.336;2023-06-22T13:28:33;49.72;;;44.13;;
14470;SDS011;7321;50.802;4.336;2023-06-22T13:30:58;53.10;;;44.47;;
14470;SDS011;7321;50.802;4.336;2023-06-22T13:33:24;53.90;;;44.55;;
14470;SDS011;7321;50.802;4.336;2023-06-22T13:35:50;48.17;;;42.88;;
14470;SDS011;7321;50.802;4.336;2023-06-22T13:38:16;50.25;;;44.85;;
14470;SDS011;7321;50.802;4.336;2023-06-22T13:40:42;49.60;;;44.03;;
14470;SDS011;7321;50.802;4.336;2023-06-22T13:43:08;48.47;;;43.00;;
14470;SDS011;7321;50.802;4.336;2023-06-22T13:45:34;48.47;;;43.03;;
14470;SDS011;7321;50.802;4.336;2023-06-22T13:48:00;50.17;;;43.22;;
14470;SDS011;7321;50.802;4.336;2023-06-22T13:50:26;47.28;;;42.08;;
14470;SDS011;7321;50.802;4.336;2023-06-22T13:52:52;48.15;;;42.60;;
14470;SDS011;7321;50.802;4.336;2023-06-22T13:55:18;46.80;;;41.75;;
14470;SDS011;7321;50.802;4.336;2023-06-22T13:57:46;45.65;;;39.90;;
14470;SDS011;7321;50.802;4.336;2023-06-22T14:00:12;44.45;;;39.85;;
14470;SDS011;7321;50.802;4.336;2023-06-22T14:02:38;43.88;;;39.15;;
14470;SDS011;7321;50.802;4.336;2023-06-22T14:05:07;45.17;;;40.28;;
14470;SDS011;7321;50.802;4.336;2023-06-22T14:07:34;45.17;;;40.33;;
14470;SDS011;7321;50.802;4.336;2023-06-22T14:10:01;44.72;;;40.13;;
14470;SDS011;7321;50.802;4.336;2023-06-22T14:12:26;45.90;;;41.13;;
14470;SDS011;7321;50.802;4.336;2023-06-22T14:14:52;44.10;;;39.40;;
14470;SDS011;7321;50.802;4.336;2023-06-22T14:17:18;46.63;;;40.65;;
14470;SDS011;7321;50.802;4.336;2023-06-22T14:19:49;43.70;;;39.08;;
14470;SDS011;7321;50.802;4.336;2023-06-22T14:22:18;44.13;;;39.28;;
14470;SDS011;7321;50.802;4.336;2023-06-22T14:24:50;44.97;;;40.38;;
14470;SDS011;7321;50.802;4.336;2023-06-22T14:27:16;44.95;;;40.13;;
14470;SDS011;7321;50.802;4.336;2023-06-22T14:29:42;46.28;;;41.20;;
14470;SDS011;7321;50.802;4.336;2023-06-22T14:32:08;44.83;;;40.33;;
14470;SDS011;7321;50.802;4.336;2023-06-22T14:34:35;46.67;;;41.65;;
14470;SDS011;7321;50.802;4.336;2023-06-22T14:37:04;46.95;;;42.05;;
14470;SDS011;7321;50.802;4.336;2023-06-22T14:39:31;45.35;;;40.75;;
14470;SDS011;7321;50.802;4.336;2023-06-22T14:41:57;46.05;;;41.22;;
14470;SDS011;7321;50.802;4.336;2023-06-22T14:44:23;46.30;;;41.53;;
14470;SDS011;7321;50.802;4.336;2023-06-22T14:46:49;49.33;;;44.08;;
14470;SDS011;7321;50.802;4.336;2023-06-22T14:49:15;50.30;;;44.95;;
14470;SDS011;7321;50.802;4.336;2023-06-22T14:51:41;55.03;;;48.95;;
14470;SDS011;7321;50.802;4.336;2023-06-22T14:54:06;52.20;;;46.60;;
14470;SDS011;7321;50.802;4.336;2023-06-22T14:56:32;54.00;;;48.30;;
14470;SDS011;7321;50.802;4.336;2023-06-22T14:58:58;53.90;;;47.92;;
14470;SDS011;7321;50.802;4.336;2023-06-22T15:01:24;53.47;;;47.75;;
14470;SDS011;7321;50.802;4.336;2023-06-22T15:03:50;55.47;;;49.22;;
14470;SDS011;7321;50.802;4.336;2023-06-22T15:06:15;56.22;;;49.95;;
14470;SDS011;7321;50.802;4.336;2023-06-22T15:08:41;54.72;;;48.83;;
14470;SDS011;7321;50.802;4.336;2023-06-22T15:11:07;55.17;;;48.65;;
14470;SDS011;7321;50.802;4.336;2023-06-22T15:13:34;53.72;;;47.83;;
14470;SDS011;7321;50.802;4.336;2023-06-22T15:16:00;53.38;;;47.67;;
14470;SDS011;7321;50.802;4.336;2023-06-22T15:18:29;52.10;;;46.50;;